createdAt,value
2019-02-25T00:00:09.753Z,44.61
2019-02-25T00:02:38.609Z,45.03
2019-02-25T00:05:05.821Z,45.64
2019-02-25T00:07:33.321Z,45.66
2019-02-25T00:10:00.292Z,45.46
2019-02-25T00:12:29.922Z,45.92
2019-02-25T00:14:56.858Z,45.54
2019-02-25T00:17:23.800Z,45.57
2019-02-25T00:19:50.765Z,45.73
2019-02-25T00:22:18.077Z,46.32
2019-02-25T00:24:45.732Z,46.92
2019-02-25T00:27:12.679Z,46.17
2019-02-25T00:29:39.977Z,46.80
2019-02-25T00:32:07.372Z,46.29
2019-02-25T00:34:34.322Z,47.38
2019-02-25T00:37:01.297Z,45.15
2019-02-25T00:39:28.266Z,44.76
2019-02-25T00:41:55.212Z,45.24
2019-02-25T00:44:23.881Z,46.16
2019-02-25T00:46:52.077Z,45.94
2019-02-25T00:49:19.014Z,45.59
2019-02-25T00:51:46.098Z,45.69
2019-02-25T00:54:13.045Z,45.69
2019-02-25T00:56:40.000Z,48.92
2019-02-25T00:59:07.439Z,45.93
2019-02-25T01:01:34.404Z,46.14
2019-02-25T01:04:04.920Z,45.77
2019-02-25T01:06:31.893Z,45.13
2019-02-25T01:08:58.867Z,45.93
2019-02-25T01:11:25.824Z,46.38
2019-02-25T01:13:53.101Z,46.53
2019-02-25T01:16:20.040Z,45.96
2019-02-25T01:18:46.996Z,45.97
2019-02-25T01:21:14.291Z,45.17
2019-02-25T01:23:41.235Z,45.35
2019-02-25T01:26:09.284Z,45.38
2019-02-25T01:28:36.241Z,45.25
2019-02-25T01:31:03.606Z,45.62
2019-02-25T01:33:30.674Z,45.94
2019-02-25T01:35:57.676Z,44.96
2019-02-25T01:38:24.909Z,45.20
2019-02-25T01:40:51.892Z,44.73
2019-02-25T01:43:18.855Z,45.06
2019-02-25T01:45:45.812Z,44.63
2019-02-25T01:48:12.759Z,44.75
2019-02-25T01:50:39.716Z,45.82
2019-02-25T01:53:07.107Z,45.76
2019-02-25T01:55:34.042Z,45.06
2019-02-25T01:58:00.992Z,44.26
2019-02-25T02:00:27.951Z,43.76
2019-02-25T02:02:54.892Z,42.99
2019-02-25T02:05:21.871Z,42.80
2019-02-25T02:07:48.810Z,42.55
2019-02-25T02:10:16.403Z,42.36
2019-02-25T02:12:43.505Z,42.81
2019-02-25T02:15:12.361Z,42.75
2019-02-25T02:17:39.623Z,43.08
2019-02-25T02:20:07.276Z,42.71
2019-02-25T02:22:34.206Z,43.67
2019-02-25T02:25:01.233Z,42.59
2019-02-25T02:27:28.218Z,42.87
2019-02-25T02:29:55.367Z,42.94
2019-02-25T02:32:22.647Z,43.39
2019-02-25T02:34:49.630Z,43.83
2019-02-25T02:37:16.574Z,44.18
2019-02-25T02:39:43.961Z,44.28
2019-02-25T02:42:13.184Z,44.53
2019-02-25T02:44:40.725Z,45.22
2019-02-25T02:47:33.643Z,45.59
2019-02-25T02:50:00.609Z,46.03
2019-02-25T02:52:27.620Z,46.12
2019-02-25T02:54:54.696Z,46.50
2019-02-25T02:57:21.666Z,46.20
2019-02-25T02:59:49.010Z,45.95
2019-02-25T03:02:16.104Z,46.33
2019-02-25T03:04:43.042Z,45.77
2019-02-25T03:07:09.993Z,45.33
2019-02-25T03:09:37.006Z,45.37
2019-02-25T03:12:03.948Z,45.37
2019-02-25T03:14:31.182Z,45.04
2019-02-25T03:16:58.213Z,44.89
2019-02-25T03:19:25.206Z,45.15
2019-02-25T03:21:54.418Z,45.18
2019-02-25T03:24:21.384Z,45.12
2019-02-25T03:26:48.331Z,45.40
2019-02-25T03:29:15.511Z,45.36
2019-02-25T03:31:42.963Z,45.50
2019-02-25T03:34:09.917Z,45.70
2019-02-25T03:36:36.877Z,45.80
2019-02-25T03:39:05.712Z,45.51
2019-02-25T03:41:32.870Z,46.80
2019-02-25T03:43:59.872Z,47.59
2019-02-25T03:46:26.842Z,47.37
2019-02-25T03:48:53.832Z,47.90
2019-02-25T03:51:20.790Z,50.15
2019-02-25T03:53:48.104Z,48.63
2019-02-25T03:56:15.139Z,48.75
2019-02-25T03:58:42.079Z,47.87
2019-02-25T04:01:09.257Z,48.64
2019-02-25T04:03:36.413Z,48.69
2019-02-25T04:06:03.666Z,47.58
2019-02-25T04:08:30.696Z,48.04
2019-02-25T04:10:57.991Z,49.07
2019-02-25T04:13:24.952Z,48.74
2019-02-25T04:15:52.007Z,47.84
2019-02-25T04:18:19.314Z,48.11
2019-02-25T04:20:46.292Z,47.99
2019-02-25T04:23:13.261Z,48.20
2019-02-25T04:25:40.221Z,50.02
2019-02-25T04:28:07.163Z,49.48
2019-02-25T04:30:34.783Z,49.98
2019-02-25T04:33:02.120Z,49.93
2019-02-25T04:35:29.048Z,49.72
2019-02-25T04:37:56.217Z,51.17
2019-02-25T04:40:23.619Z,51.54
2019-02-25T04:42:50.609Z,50.65
2019-02-25T04:45:17.541Z,49.14
2019-02-25T04:47:44.483Z,47.84
2019-02-25T04:50:12.016Z,48.10
2019-02-25T04:52:39.017Z,48.35
2019-02-25T04:55:06.520Z,48.92
2019-02-25T04:57:33.763Z,50.23
2019-02-25T05:00:00.746Z,50.57
2019-02-25T05:02:27.693Z,49.14
2019-02-25T05:04:54.638Z,48.39
2019-02-25T05:07:21.640Z,47.11
2019-02-25T05:09:48.603Z,46.65
2019-02-25T05:12:15.944Z,46.59
2019-02-25T05:14:42.918Z,46.12
2019-02-25T05:17:10.035Z,45.57
2019-02-25T05:19:37.379Z,45.78
2019-02-25T05:22:04.369Z,46.05
2019-02-25T05:24:31.350Z,46.26
2019-02-25T05:26:58.291Z,46.84
2019-02-25T05:29:25.591Z,46.72
2019-02-25T05:31:52.516Z,46.62
2019-02-25T05:34:19.463Z,47.28
2019-02-25T05:36:46.865Z,46.75
2019-02-25T05:39:13.814Z,46.03
2019-02-25T05:41:40.805Z,46.06
2019-02-25T05:44:08.576Z,46.85
2019-02-25T05:46:35.719Z,47.12
2019-02-25T05:49:02.660Z,47.11
2019-02-25T05:51:30.100Z,47.64
2019-02-25T05:53:57.038Z,47.51
2019-02-25T05:56:24.042Z,47.61
2019-02-25T05:58:51.412Z,47.71
2019-02-25T06:01:18.379Z,47.69
2019-02-25T06:03:45.330Z,47.61
2019-02-25T06:06:12.294Z,50.06
2019-02-25T06:08:39.626Z,50.70
2019-02-25T06:11:06.601Z,51.27
2019-02-25T06:13:34.037Z,51.70
2019-02-25T06:16:01.010Z,52.63
2019-02-25T06:18:27.947Z,51.79
2019-02-25T06:20:55.320Z,51.94
2019-02-25T06:23:22.261Z,51.89
2019-02-25T06:25:49.210Z,51.90
2019-02-25T06:28:16.659Z,51.85
2019-02-25T06:30:43.593Z,51.76
2019-02-25T06:33:10.528Z,51.83
2019-02-25T06:35:37.481Z,51.76
2019-02-25T06:38:04.444Z,51.67
2019-02-25T06:40:31.382Z,51.57
2019-02-25T06:42:58.810Z,52.08
2019-02-25T06:45:25.853Z,51.36
2019-02-25T06:47:52.780Z,51.04
2019-02-25T06:50:20.781Z,50.79
2019-02-25T06:52:47.726Z,50.28
2019-02-25T06:55:14.896Z,49.65
2019-02-25T06:57:42.255Z,48.65
2019-02-25T07:00:12.305Z,48.22
2019-02-25T07:02:40.253Z,48.07
2019-02-25T07:05:19.671Z,47.88
2019-02-25T07:07:51.833Z,47.26
2019-02-25T07:10:37.498Z,47.35
2019-02-25T07:13:22.290Z,47.52
2019-02-25T07:16:09.357Z,46.86
2019-02-25T07:18:58.483Z,47.14
2019-02-25T07:21:37.953Z,46.55
2019-02-25T07:24:17.477Z,46.36
2019-02-25T07:26:50.771Z,46.16
2019-02-25T07:29:32.577Z,46.29
2019-02-25T07:32:14.964Z,45.21
2019-02-25T07:34:47.249Z,44.46
2019-02-25T07:37:34.040Z,43.82
2019-02-25T07:40:13.818Z,43.99
2019-02-25T07:43:12.855Z,43.86
2019-02-25T07:46:02.198Z,43.83
2019-02-25T07:48:47.456Z,42.58
2019-02-25T07:51:49.128Z,41.91
2019-02-25T07:54:31.319Z,40.51
2019-02-25T07:57:20.767Z,40.50
2019-02-25T08:00:25.851Z,40.36
2019-02-25T08:03:18.275Z,40.55
2019-02-25T08:06:23.572Z,40.64
2019-02-25T08:09:17.637Z,40.69
2019-02-25T08:12:09.194Z,39.88
2019-02-25T08:15:09.057Z,39.95
2019-02-25T08:17:59.317Z,39.21
2019-02-25T08:20:44.773Z,39.46
2019-02-25T08:23:31.835Z,39.27
2019-02-25T08:26:16.955Z,39.62
2019-02-25T08:28:53.459Z,38.76
2019-02-25T08:31:58.227Z,37.95
2019-02-25T08:34:57.349Z,38.24
2019-02-25T08:37:54.283Z,37.45
2019-02-25T08:40:40.849Z,37.03
2019-02-25T08:43:22.557Z,37.00
2019-02-25T08:46:00.861Z,37.88
2019-02-25T08:48:34.397Z,37.27
2019-02-25T08:51:01.365Z,37.53
2019-02-25T08:53:29.907Z,37.34
2019-02-25T08:55:58.365Z,36.46
2019-02-25T08:58:25.597Z,35.27
2019-02-25T09:00:52.549Z,35.97
2019-02-25T09:03:19.483Z,34.35
2019-02-25T09:05:46.513Z,32.61
2019-02-25T09:08:13.816Z,32.19
2019-02-25T09:10:40.864Z,31.70
2019-02-25T09:13:08.068Z,31.81
2019-02-25T09:15:35.008Z,30.70
2019-02-25T09:18:00.974Z,29.97
2019-02-25T09:20:27.968Z,29.14
2019-02-25T09:22:54.904Z,29.46
2019-02-25T09:25:21.849Z,30.07
2019-02-25T09:27:48.899Z,30.34
2019-02-25T09:30:16.163Z,30.00
2019-02-25T09:32:43.433Z,28.02
2019-02-25T09:35:11.124Z,28.53
2019-02-25T09:37:38.209Z,27.83
2019-02-25T09:40:07.072Z,26.98
2019-02-25T09:42:34.838Z,27.69
2019-02-25T09:45:01.802Z,26.15
2019-02-25T09:47:29.358Z,25.16
2019-02-25T09:49:56.656Z,25.67
2019-02-25T09:52:23.579Z,25.43
2019-02-25T09:54:50.527Z,25.14
2019-02-25T09:57:17.935Z,24.26
2019-02-25T09:59:44.896Z,25.79
2019-02-25T10:02:11.836Z,25.13
2019-02-25T10:04:39.210Z,23.96
2019-02-25T10:07:06.136Z,23.48
2019-02-25T10:09:33.104Z,23.84
2019-02-25T10:12:01.503Z,21.88
2019-02-25T10:14:28.472Z,22.62
2019-02-25T10:16:55.419Z,22.07
2019-02-25T10:19:22.380Z,22.10
2019-02-25T10:21:49.333Z,21.83
2019-02-25T10:24:16.335Z,21.11
2019-02-25T10:26:43.736Z,21.00
2019-02-25T10:29:10.685Z,20.58
2019-02-25T10:31:39.572Z,20.60
2019-02-25T10:34:07.681Z,20.25
2019-02-25T10:36:36.388Z,18.59
2019-02-25T10:39:09.082Z,17.83
2019-02-25T10:41:37.169Z,18.16
2019-02-25T10:44:04.852Z,17.61
2019-02-25T10:46:32.973Z,18.02
2019-02-25T10:49:10.958Z,17.72
2019-02-25T10:51:28.894Z,18.31
2019-02-25T10:53:55.882Z,16.68
2019-02-25T10:56:27.615Z,17.59
2019-02-25T10:58:54.553Z,17.46
2019-02-25T11:01:22.361Z,17.31
2019-02-25T11:03:52.189Z,18.24
2019-02-25T11:06:19.311Z,16.62
2019-02-25T11:08:51.176Z,17.39
2019-02-25T11:11:23.221Z,17.02
2019-02-25T11:13:50.837Z,16.44
2019-02-25T11:16:19.861Z,16.16
2019-02-25T11:18:46.702Z,15.15
2019-02-25T11:21:13.704Z,15.65
2019-02-25T11:23:42.900Z,17.23
2019-02-25T11:26:09.865Z,17.78
2019-02-25T11:28:39.180Z,17.97
2019-02-25T11:31:05.866Z,17.00
2019-02-25T11:33:34.357Z,16.57
2019-02-25T11:36:01.616Z,15.83
2019-02-25T11:38:30.514Z,17.07
2019-02-25T11:41:31.735Z,17.21
2019-02-25T11:44:31.033Z,16.57
2019-02-25T11:46:57.089Z,15.69
2019-02-25T11:49:24.033Z,15.13
2019-02-25T11:51:50.985Z,14.50
2019-02-25T11:54:17.982Z,14.34
2019-02-25T11:56:45.437Z,14.52
2019-02-25T11:59:12.387Z,14.87
2019-02-25T12:01:39.336Z,15.41
2019-02-25T12:04:06.686Z,14.90
2019-02-25T12:06:33.633Z,14.95
2019-02-25T12:09:03.104Z,14.76
2019-02-25T12:11:32.294Z,14.41
2019-02-25T12:13:59.252Z,14.10
2019-02-25T12:16:26.267Z,15.13
2019-02-25T12:18:53.594Z,15.70
2019-02-25T12:21:20.552Z,14.80
2019-02-25T12:23:49.579Z,14.55
2019-02-25T12:26:16.543Z,14.45
2019-02-25T12:28:43.906Z,13.64
2019-02-25T12:31:11.213Z,15.10
2019-02-25T12:33:38.203Z,14.75
2019-02-25T12:36:05.157Z,14.86
2019-02-25T12:38:32.131Z,13.92
2019-02-25T12:40:59.075Z,13.71
2019-02-25T12:43:26.081Z,14.55
2019-02-25T12:45:54.711Z,14.06
2019-02-25T12:48:22.814Z,13.74
2019-02-25T12:50:49.851Z,15.59
2019-02-25T12:53:16.889Z,15.65
2019-02-25T12:55:43.824Z,15.46
2019-02-25T12:58:10.870Z,15.36
2019-02-25T13:00:37.833Z,13.71
2019-02-25T13:03:04.819Z,14.27
2019-02-25T13:05:31.786Z,14.84
2019-02-25T13:07:58.813Z,14.21
2019-02-25T13:10:26.378Z,14.78
2019-02-25T13:12:53.568Z,14.74
2019-02-25T13:15:20.661Z,15.05
2019-02-25T13:17:47.988Z,14.06
2019-02-25T13:20:15.104Z,13.63
2019-02-25T13:22:42.398Z,14.95
2019-02-25T13:25:11.220Z,15.99
2019-02-25T13:27:39.370Z,16.18
2019-02-25T13:30:09.878Z,15.67
2019-02-25T13:32:36.831Z,15.01
2019-02-25T13:35:03.900Z,15.47
2019-02-25T13:37:31.000Z,15.90
2019-02-25T13:39:59.905Z,16.08
2019-02-25T13:42:27.042Z,16.07
2019-02-25T13:44:54.188Z,15.53
2019-02-25T13:47:21.605Z,13.90
2019-02-25T13:49:49.395Z,14.30
2019-02-25T13:52:16.362Z,14.21
2019-02-25T13:54:43.729Z,14.60
2019-02-25T13:57:10.723Z,14.18
2019-02-25T13:59:37.685Z,13.52
2019-02-25T14:02:04.925Z,13.25
2019-02-25T14:04:32.062Z,13.06
2019-02-25T14:06:59.341Z,12.92
2019-02-25T14:09:26.720Z,12.78
2019-02-25T14:11:53.961Z,11.70
2019-02-25T14:14:20.973Z,12.26
2019-02-25T14:16:50.009Z,12.92
2019-02-25T14:19:17.081Z,15.58
2019-02-25T14:21:44.256Z,14.94
2019-02-25T14:24:13.169Z,14.71
2019-02-25T14:26:40.104Z,14.41
2019-02-25T14:29:07.099Z,14.56
2019-02-25T14:31:34.320Z,13.07
2019-02-25T14:34:01.260Z,13.65
2019-02-25T14:36:28.376Z,13.64
2019-02-25T14:38:56.386Z,14.87
2019-02-25T14:41:24.655Z,15.51
2019-02-25T14:43:53.760Z,16.32
2019-02-25T14:46:24.356Z,15.48
2019-02-25T14:48:50.826Z,14.95
2019-02-25T14:51:17.990Z,13.67
2019-02-25T14:53:46.950Z,12.73
2019-02-25T14:56:15.727Z,12.90
2019-02-25T14:58:43.793Z,13.95
2019-02-25T15:01:12.072Z,13.83
2019-02-25T15:03:39.148Z,14.80
2019-02-25T15:06:06.189Z,15.61
2019-02-25T15:08:37.478Z,16.44
2019-02-25T15:11:37.765Z,16.02
2019-02-25T15:14:05.919Z,15.67
2019-02-25T15:16:34.509Z,15.99
2019-02-25T15:19:01.561Z,17.04
2019-02-25T15:21:28.614Z,16.81
2019-02-25T15:24:00.058Z,16.65
2019-02-25T15:26:28.073Z,17.23
2019-02-25T15:29:02.853Z,17.19
2019-02-25T15:31:35.607Z,16.75
2019-02-25T15:34:05.179Z,15.64
2019-02-25T15:36:32.419Z,15.85
2019-02-25T15:38:59.596Z,15.79
2019-02-25T15:41:26.540Z,15.89
2019-02-25T15:43:59.828Z,15.63
2019-02-25T15:46:27.032Z,17.54
2019-02-25T15:48:59.690Z,17.92
2019-02-25T15:51:28.479Z,16.59
2019-02-25T15:53:59.817Z,16.73
2019-02-25T15:56:31.933Z,17.25
2019-02-25T15:59:08.270Z,17.63
2019-02-25T16:01:37.032Z,17.99
2019-02-25T16:04:04.680Z,18.92
2019-02-25T16:06:34.065Z,18.80
2019-02-25T16:09:03.545Z,19.11
2019-02-25T16:11:36.652Z,18.38
2019-02-25T16:14:04.493Z,19.11
2019-02-25T16:16:33.463Z,19.82
2019-02-25T16:19:00.586Z,20.65
2019-02-25T16:21:27.612Z,20.96
2019-02-25T16:23:54.966Z,20.43
2019-02-25T16:26:22.609Z,21.22
2019-02-25T16:28:50.496Z,21.47
2019-02-25T16:31:19.988Z,21.89
2019-02-25T16:33:49.084Z,22.28
2019-02-25T16:36:21.904Z,23.03
2019-02-25T16:38:55.719Z,23.88
2019-02-25T16:41:27.364Z,24.96
2019-02-25T16:43:51.228Z,25.50
2019-02-25T16:46:20.209Z,25.65
2019-02-25T16:48:48.405Z,25.72
2019-02-25T16:51:18.934Z,25.93
2019-02-25T16:53:49.804Z,26.76
2019-02-25T16:56:15.072Z,27.48
2019-02-25T16:58:42.376Z,27.57
2019-02-25T17:01:10.941Z,27.77
2019-02-25T17:03:39.751Z,27.80
2019-02-25T17:06:09.209Z,28.26
2019-02-25T17:08:36.513Z,28.27
2019-02-25T17:11:04.132Z,28.48
2019-02-25T17:13:33.070Z,28.08
2019-02-25T17:16:02.742Z,28.00
2019-02-25T17:18:31.252Z,28.26
2019-02-25T17:20:59.084Z,28.71
2019-02-25T17:23:32.302Z,28.96
2019-02-25T17:26:01.810Z,29.50
2019-02-25T17:28:28.778Z,29.47
2019-02-25T17:30:56.351Z,29.14
2019-02-25T17:33:24.118Z,29.00
2019-02-25T17:35:54.084Z,29.41
2019-02-25T17:38:23.032Z,30.26
2019-02-25T17:40:50.618Z,30.63
2019-02-25T17:43:18.441Z,30.33
2019-02-25T17:45:47.422Z,30.60
2019-02-25T17:48:18.662Z,30.75
2019-02-25T17:50:46.650Z,30.95
2019-02-25T17:53:14.004Z,31.30
2019-02-25T17:55:41.397Z,31.45
2019-02-25T17:58:08.478Z,31.72
2019-02-25T18:00:39.436Z,32.14
2019-02-25T18:03:07.184Z,32.14
2019-02-25T18:05:35.941Z,32.34
2019-02-25T18:08:05.313Z,32.76
2019-02-25T18:10:38.168Z,32.90
2019-02-25T18:13:10.436Z,32.95
2019-02-25T18:15:37.619Z,33.10
2019-02-25T18:18:07.044Z,33.46
2019-02-25T18:20:34.019Z,33.99
2019-02-25T18:23:01.521Z,34.26
2019-02-25T18:25:28.644Z,34.70
2019-02-25T18:27:55.625Z,34.99
2019-02-25T18:30:25.175Z,35.15
2019-02-25T18:32:52.660Z,35.53
2019-02-25T18:35:22.845Z,35.62
2019-02-25T18:37:49.866Z,35.65
2019-02-25T18:40:18.997Z,35.78
2019-02-25T18:42:46.274Z,36.05
2019-02-25T18:45:16.009Z,36.14
2019-02-25T18:47:43.491Z,36.27
2019-02-25T18:50:15.178Z,36.24
2019-02-25T18:52:41.931Z,36.47
2019-02-25T18:55:11.150Z,36.42
2019-02-25T18:57:41.701Z,36.40
2019-02-25T19:00:13.377Z,36.95
2019-02-25T19:02:42.983Z,37.61
2019-02-25T19:05:13.606Z,37.49
2019-02-25T19:07:39.042Z,37.51
2019-02-25T19:10:06.277Z,38.22
2019-02-25T19:12:33.665Z,39.25
2019-02-25T19:15:03.092Z,38.51
2019-02-25T19:17:31.954Z,38.87
2019-02-25T19:19:59.105Z,38.85
2019-02-25T19:22:27.261Z,39.38
2019-02-25T19:24:54.202Z,39.68
2019-02-25T19:27:21.230Z,39.42
2019-02-25T19:29:49.380Z,39.87
2019-02-25T19:32:20.935Z,40.24
2019-02-25T19:34:54.035Z,40.92
2019-02-25T19:37:21.073Z,40.29
2019-02-25T19:39:50.420Z,40.80
2019-02-25T19:42:18.149Z,40.55
2019-02-25T19:44:46.673Z,40.40
2019-02-25T19:47:14.378Z,40.09
2019-02-25T19:49:43.560Z,40.22
2019-02-25T19:52:12.157Z,39.85
2019-02-25T19:54:40.858Z,39.82
2019-02-25T19:57:11.522Z,40.15
2019-02-25T19:59:38.578Z,39.97
2019-02-25T20:02:07.910Z,40.02
2019-02-25T20:04:35.964Z,40.41
2019-02-25T20:07:04.235Z,40.45
2019-02-25T20:09:31.566Z,40.69
2019-02-25T20:12:01.339Z,40.89
2019-02-25T20:14:31.338Z,41.22
2019-02-25T20:16:58.191Z,41.50
2019-02-25T20:19:25.183Z,41.58
2019-02-25T20:21:54.709Z,42.22
2019-02-25T20:24:23.801Z,41.79
2019-02-25T20:26:55.086Z,42.20
2019-02-25T20:29:20.692Z,43.01
2019-02-25T20:31:49.622Z,43.22
2019-02-25T20:34:20.331Z,42.86
2019-02-25T20:36:46.477Z,43.60
2019-02-25T20:39:14.380Z,43.48
2019-02-25T20:41:43.277Z,43.55
2019-02-25T20:44:10.655Z,43.82
2019-02-25T20:46:38.661Z,44.33
2019-02-25T20:49:06.152Z,44.54
2019-02-25T20:51:33.788Z,44.67
2019-02-25T20:54:02.054Z,44.95
2019-02-25T20:56:31.023Z,44.98
2019-02-25T20:58:58.982Z,45.48
2019-02-25T21:01:27.494Z,45.66
2019-02-25T21:03:55.252Z,45.70
2019-02-25T21:06:24.261Z,45.84
2019-02-25T21:08:51.238Z,44.93
2019-02-25T21:11:18.201Z,44.38
2019-02-25T21:13:47.578Z,44.22
2019-02-25T21:16:16.183Z,44.39
2019-02-25T21:18:44.391Z,44.71
2019-02-25T21:21:14.415Z,44.54
2019-02-25T21:23:41.442Z,44.59
2019-02-25T21:26:09.318Z,44.70
2019-02-25T21:28:38.130Z,45.57
2019-02-25T21:31:10.989Z,45.81
2019-02-25T21:33:35.032Z,45.59
2019-02-25T21:36:02.366Z,45.20
2019-02-25T21:38:32.837Z,45.19
2019-02-25T21:40:59.859Z,44.93
2019-02-25T21:43:29.078Z,45.00
2019-02-25T21:45:56.647Z,45.08
2019-02-25T21:48:27.520Z,45.20
2019-02-25T21:50:54.214Z,45.62
2019-02-25T21:53:23.056Z,46.11
2019-02-25T21:55:51.101Z,46.55
2019-02-25T21:58:21.264Z,46.94
2019-02-25T22:00:47.851Z,46.89
2019-02-25T22:03:17.323Z,46.68
2019-02-25T22:05:44.047Z,46.70
2019-02-25T22:08:11.005Z,46.90
2019-02-25T22:10:39.859Z,47.05
2019-02-25T22:13:11.691Z,47.01
2019-02-25T22:15:40.794Z,46.86
2019-02-25T22:18:11.440Z,47.08
2019-02-25T22:20:39.836Z,47.74
2019-02-25T22:23:08.043Z,47.51
2019-02-25T22:25:35.227Z,47.77
2019-02-25T22:28:07.582Z,48.27
2019-02-25T22:30:34.582Z,48.83
2019-02-25T22:33:03.005Z,48.82
2019-02-25T22:35:33.247Z,49.50
2019-02-25T22:38:00.514Z,48.78
2019-02-25T22:40:30.080Z,49.10
2019-02-25T22:42:58.908Z,49.30
2019-02-25T22:45:27.892Z,49.49
2019-02-25T22:47:54.844Z,49.64
2019-02-25T22:50:21.993Z,51.96
2019-02-25T22:52:51.607Z,51.02
2019-02-25T22:55:20.187Z,50.04
2019-02-25T22:57:50.911Z,50.06
2019-02-25T23:00:27.998Z,49.75
2019-02-25T23:02:56.915Z,49.31
2019-02-25T23:05:25.520Z,49.64
2019-02-25T23:07:54.558Z,49.74
2019-02-25T23:10:24.004Z,49.82
2019-02-25T23:12:50.734Z,50.34
2019-02-25T23:15:18.298Z,51.93
2019-02-25T23:17:46.598Z,53.02
2019-02-25T23:20:13.572Z,53.59
2019-02-25T23:22:40.549Z,54.78
2019-02-25T23:25:08.081Z,55.15
2019-02-25T23:27:36.618Z,54.43
2019-02-25T23:30:08.413Z,53.28
2019-02-25T23:32:33.817Z,52.72
2019-02-25T23:35:00.803Z,53.24
2019-02-25T23:37:27.785Z,53.25
2019-02-25T23:39:54.729Z,53.35
2019-02-25T23:42:21.673Z,53.60
2019-02-25T23:44:48.675Z,53.41
2019-02-25T23:47:15.714Z,53.95
2019-02-25T23:49:43.860Z,54.18
2019-02-25T23:52:12.844Z,53.39
2019-02-25T23:54:43.370Z,52.62
2019-02-25T23:57:08.778Z,52.39
2019-02-25T23:59:36.093Z,53.54
